Time;durP1;ratioP1;P1;durP2;ratioP2;P2;SDS_P1;SDS_P2;PMS_P1;PMS_P2;Temp;Humidity;BMP_temperature;BMP_pressure;BME280_temperature;BME280_humidity;BME280_pressure;Samples;Min_cycle;Max_cycle;Signal;HPM_P1;HPM_P2
2022/04/26 03:36:39;;;;;;;;;;;9.60;99.90;;;;;;5026883;28;20393;-75
2022/04/26 03:39:06;;;;;;;15.30;10.68;;;9.60;99.90;;;;;;5027310;28;19909;-75
2022/04/26 03:41:32;;;;;;;17.88;10.55;;;9.60;99.90;;;;;;5027396;28;20552;-74
2022/04/26 03:43:58;;;;;;;15.07;10.40;;;9.60;99.90;;;;;;5029662;28;20413;-76
2022/04/26 03:46:24;;;;;;;14.40;9.52;;;9.60;99.90;;;;;;4994562;28;20025;-76
2022/04/26 03:48:49;;;;;;;12.77;9.02;;;9.60;99.90;;;;;;5011565;28;20389;-76
2022/04/26 03:51:15;;;;;;;13.57;9.02;;;9.60;99.90;;;;;;5024077;28;20017;-76
2022/04/26 03:53:41;;;;;;;11.93;9.07;;;9.60;99.90;;;;;;5028638;28;20047;-76
2022/04/26 03:56:07;;;;;;;11.45;9.05;;;9.60;99.90;;;;;;5026173;28;20037;-76
2022/04/26 03:58:33;;;;;;;13.50;9.63;;;9.60;99.90;;;;;;5008144;28;20033;-76
2022/04/26 04:00:59;;;;;;;13.50;8.70;;;9.70;99.90;;;;;;5025015;28;20029;-76
2022/04/26 04:03:25;;;;;;;12.13;8.80;;;9.70;99.90;;;;;;5025212;28;20033;-77
2022/04/26 04:05:51;;;;;;;11.95;9.10;;;9.70;99.90;;;;;;5026386;28;20029;-77
2022/04/26 04:08:17;;;;;;;14.70;9.05;;;9.70;99.90;;;;;;5028253;28;20501;-77
2022/04/26 04:10:43;;;;;;;11.88;8.95;;;9.60;99.90;;;;;;5024795;28;20417;-77
2022/04/26 04:13:08;;;;;;;14.65;10.20;;;9.60;99.90;;;;;;5011413;28;20056;-77
2022/04/26 04:15:34;;;;;;;14.35;10.20;;;9.60;99.90;;;;;;5028086;28;20022;-77
2022/04/26 04:18:00;;;;;;;12.98;9.10;;;9.60;99.90;;;;;;5023884;28;20083;-77
2022/04/26 04:20:25;;;;;;;13.75;10.27;;;9.60;99.90;;;;;;5019412;28;20473;-78
2022/04/26 04:22:53;;;;;;;13.88;9.63;;;9.60;99.90;;;;;;5010159;28;20022;-78
2022/04/26 04:25:20;;;;;;;13.35;9.63;;;9.60;99.90;;;;;;5008863;28;20550;-77
2022/04/26 04:27:46;;;;;;;14.75;10.00;;;9.60;99.90;;;;;;5027027;28;20025;-79
2022/04/26 04:30:12;;;;;;;13.00;9.73;;;9.60;99.90;;;;;;5026558;28;20057;-80
2022/04/26 04:32:38;;;;;;;17.13;10.32;;;9.60;99.90;;;;;;5008395;28;20128;-77
2022/04/26 04:35:05;;;;;;;14.93;9.68;;;9.60;99.90;;;;;;5023080;28;20033;-79
2022/04/26 04:37:31;;;;;;;15.48;8.70;;;9.60;99.90;;;;;;5009113;28;20493;-78
2022/04/26 04:39:56;;;;;;;11.27;8.60;;;9.60;99.90;;;;;;5011060;28;20044;-78
2022/04/26 04:42:22;;;;;;;14.40;8.35;;;9.60;99.90;;;;;;5023066;28;20052;-78
2022/04/26 04:44:48;;;;;;;14.07;9.10;;;9.70;99.90;;;;;;5009621;28;26244;-78
2022/04/26 04:47:14;;;;;;;11.75;8.73;;;9.60;99.90;;;;;;5008184;28;20501;-78
2022/04/26 04:49:39;;;;;;;10.13;7.68;;;9.60;99.90;;;;;;5020335;28;20034;-79
2022/04/26 04:52:05;;;;;;;10.05;7.55;;;9.60;99.90;;;;;;5008837;28;20029;-78
2022/04/26 04:54:31;;;;;;;9.25;7.60;;;9.60;99.90;;;;;;5023355;28;20086;-78
2022/04/26 04:56:57;;;;;;;13.15;9.20;;;9.60;99.90;;;;;;5025366;28;20116;-78
2022/04/26 04:59:22;;;;;;;12.30;7.45;;;9.60;99.90;;;;;;5025510;28;20018;-79
2022/04/26 05:01:48;;;;;;;10.68;7.90;;;9.60;99.90;;;;;;5028341;28;20437;-79
2022/04/26 05:04:14;;;;;;;14.00;7.80;;;9.60;99.90;;;;;;5012222;28;20623;-80
2022/04/26 05:06:39;;;;;;;13.00;8.38;;;9.60;99.90;;;;;;5011002;28;21151;-79
2022/04/26 05:09:05;;;;;;;11.05;7.85;;;9.50;99.90;;;;;;5024430;28;20036;-79
2022/04/26 05:11:31;;;;;;;13.55;8.20;;;9.50;99.90;;;;;;5024761;28;20481;-83
2022/04/26 05:13:57;;;;;;;10.75;7.75;;;9.40;99.90;;;;;;5014970;28;20041;-79
2022/04/26 05:16:22;;;;;;;12.45;7.57;;;9.40;99.90;;;;;;5025921;28;20470;-79
2022/04/26 05:18:48;;;;;;;14.48;8.88;;;9.50;99.90;;;;;;5023648;28;20033;-78
2022/04/26 05:21:14;;;;;;;12.77;8.80;;;9.60;99.90;;;;;;5007980;28;20040;-78
2022/04/26 05:26:30;;;;;;;11.05;7.90;;;9.60;99.90;;;;;;5025167;28;20029;-79
2022/04/26 05:28:55;;;;;;;11.82;7.70;;;9.60;99.90;;;;;;5026186;28;20029;-78
2022/04/26 05:31:21;;;;;;;11.38;7.68;;;9.70;99.90;;;;;;5024725;28;20072;-76
2022/04/26 05:33:47;;;;;;;11.65;7.80;;;9.80;99.90;;;;;;5021909;28;20148;-77
2022/04/26 05:36:13;;;;;;;10.25;7.55;;;9.80;99.90;;;;;;5022661;28;20106;-80
2022/04/26 05:38:39;;;;;;;12.30;8.30;;;9.80;99.90;;;;;;5023596;28;20461;-81
2022/04/26 05:41:05;;;;;;;11.65;8.43;;;9.80;99.90;;;;;;5024058;28;20096;-79
2022/04/26 05:43:32;;;;;;;11.27;8.40;;;9.90;99.90;;;;;;5008271;28;20033;-81
2022/04/26 05:45:58;;;;;;;11.73;8.13;;;9.90;99.90;;;;;;5002632;28;20443;-80
2022/04/26 05:48:24;;;;;;;12.38;7.85;;;9.90;99.90;;;;;;5013061;28;20029;-80
2022/04/26 05:50:50;;;;;;;10.65;7.05;;;9.90;99.90;;;;;;5026696;28;20029;-81
2022/04/26 05:53:15;;;;;;;10.73;7.32;;;9.90;99.90;;;;;;5025120;28;20025;-80
2022/04/26 05:55:41;;;;;;;11.75;7.43;;;9.90;99.90;;;;;;5024522;28;20083;-79
2022/04/26 05:58:09;;;;;;;11.57;7.55;;;9.90;99.90;;;;;;5018955;28;20033;-79
2022/04/26 06:00:34;;;;;;;8.73;6.30;;;10.00;99.90;;;;;;5007449;28;20052;-77
2022/04/26 06:03:01;;;;;;;9.68;6.70;;;10.00;99.90;;;;;;5020646;28;20482;-76
2022/04/26 06:05:26;;;;;;;8.02;6.32;;;10.00;99.90;;;;;;5024432;28;20464;-77
2022/04/26 06:07:52;;;;;;;10.35;6.88;;;10.00;99.90;;;;;;5020912;28;20049;-77
2022/04/26 06:10:18;;;;;;;8.43;6.50;;;10.10;99.90;;;;;;5025533;28;20033;-77
2022/04/26 06:12:44;;;;;;;6.03;5.20;;;10.10;99.90;;;;;;5012293;28;20029;-77
2022/04/26 06:15:12;;;;;;;8.15;5.97;;;10.00;99.90;;;;;;5025979;28;20029;-77
2022/04/26 06:17:38;;;;;;;8.68;5.88;;;10.00;99.90;;;;;;5019326;28;20044;-78
2022/04/26 06:20:04;;;;;;;8.90;6.55;;;10.00;99.90;;;;;;5021164;28;20021;-76
2022/04/26 06:22:30;;;;;;;9.07;6.97;;;10.00;99.90;;;;;;5020456;28;20086;-76
2022/04/26 06:24:55;;;;;;;9.07;6.22;;;10.00;99.90;;;;;;5025568;28;20029;-78
2022/04/26 06:27:21;;;;;;;8.48;6.40;;;10.00;99.90;;;;;;5024058;28;20055;-78
2022/04/26 06:29:47;;;;;;;9.05;6.40;;;10.00;99.90;;;;;;5020161;28;20029;-77
2022/04/26 06:32:13;;;;;;;7.95;6.05;;;10.00;99.90;;;;;;5009975;28;20034;-77
2022/04/26 06:34:38;;;;;;;8.63;6.10;;;10.00;99.90;;;;;;5023209;28;20029;-77
2022/04/26 06:37:04;;;;;;;7.53;5.57;;;10.00;99.90;;;;;;5013766;28;20090;-77
2022/04/26 06:39:30;;;;;;;7.55;5.38;;;10.10;99.90;;;;;;5022841;28;20074;-76
2022/04/26 06:41:55;;;;;;;8.30;5.30;;;10.10;99.90;;;;;;5026287;28;20029;-77
2022/04/26 06:44:21;;;;;;;5.82;4.35;;;10.00;99.90;;;;;;5020390;28;20029;-76
2022/04/26 06:46:47;;;;;;;7.85;5.07;;;10.10;99.90;;;;;;5027403;28;20436;-77
2022/04/26 06:49:12;;;;;;;7.70;5.57;;;10.10;99.90;;;;;;5008721;28;20025;-77
2022/04/26 06:51:43;;;;;;;6.60;4.93;;;10.20;99.90;;;;;;5024984;28;20123;-77
2022/04/26 06:54:09;;;;;;;6.68;4.68;;;10.10;99.90;;;;;;5019416;28;20030;-78
2022/04/26 06:56:34;;;;;;;6.30;4.57;;;10.20;99.90;;;;;;5023888;28;20022;-78
2022/04/26 06:59:00;;;;;;;6.90;5.20;;;10.20;99.90;;;;;;5011830;28;20025;-77
2022/04/26 07:01:25;;;;;;;13.88;8.07;;;10.30;99.90;;;;;;5024816;28;20021;-78
2022/04/26 07:03:51;;;;;;;10.68;6.38;;;10.30;99.90;;;;;;5025438;28;20026;-78
2022/04/26 07:06:17;;;;;;;8.82;5.28;;;10.30;99.90;;;;;;5025939;28;20040;-77
2022/04/26 07:08:43;;;;;;;7.90;4.90;;;10.30;99.90;;;;;;5026196;28;20033;-77
2022/04/26 07:11:08;;;;;;;9.95;5.15;;;10.30;99.90;;;;;;5027519;28;20075;-76
2022/04/26 07:13:34;;;;;;;7.03;4.82;;;10.30;99.90;;;;;;5019383;28;20037;-77
2022/04/26 07:16:00;;;;;;;7.72;5.18;;;10.40;99.90;;;;;;5024135;28;20057;-77
2022/04/26 07:18:26;;;;;;;7.57;5.00;;;10.50;99.90;;;;;;5020050;28;20022;-77
2022/04/26 07:20:52;;;;;;;6.88;4.57;;;10.60;99.90;;;;;;5020641;28;20474;-77
2022/04/26 07:23:18;;;;;;;6.72;4.88;;;10.70;99.90;;;;;;5004576;28;20029;-77
2022/04/26 07:25:43;;;;;;;7.90;6.15;;;10.80;99.90;;;;;;5025028;28;20029;-78
2022/04/26 07:28:09;;;;;;;8.60;5.40;;;11.00;99.90;;;;;;5010585;28;20600;-78
2022/04/26 07:30:35;;;;;;;6.97;4.68;;;11.10;99.90;;;;;;5026623;28;20044;-78
2022/04/26 07:35:46;;;;;;;7.60;4.90;;;11.20;99.90;;;;;;5020268;28;20171;-78
2022/04/26 07:38:12;;;;;;;7.97;5.68;;;11.20;99.90;;;;;;5028170;28;20533;-78
2022/04/26 07:40:38;;;;;;;8.57;5.60;;;11.30;99.90;;;;;;5025507;28;20026;-77
2022/04/26 07:43:04;;;;;;;8.63;5.40;;;11.40;99.90;;;;;;5009156;28;20088;-78
2022/04/26 07:45:31;;;;;;;7.13;5.25;;;11.40;99.90;;;;;;5018534;28;20051;-79
2022/04/26 07:47:58;;;;;;;10.20;5.60;;;11.50;99.90;;;;;;5006031;28;20056;-78
2022/04/26 07:50:24;;;;;;;9.02;5.22;;;11.50;99.90;;;;;;5027206;28;20108;-78
2022/04/26 07:52:49;;;;;;;7.53;5.20;;;11.50;99.90;;;;;;5024945;28;20159;-78
2022/04/26 07:55:15;;;;;;;7.57;5.65;;;11.60;99.90;;;;;;5032077;28;20060;-77
2022/04/26 07:57:41;;;;;;;6.60;4.93;;;11.60;99.90;;;;;;5027287;28;20033;-76
2022/04/26 08:00:07;;;;;;;7.25;5.50;;;11.70;99.90;;;;;;5010608;28;20025;-76
2022/04/26 08:02:32;;;;;;;7.90;5.20;;;11.70;99.90;;;;;;5031723;28;20104;-76
2022/04/26 08:05:01;;;;;;;6.25;4.55;;;11.80;99.90;;;;;;5029437;28;20104;-76
2022/04/26 08:07:28;;;;;;;9.55;5.20;;;11.70;99.90;;;;;;5029157;28;20029;-76
2022/04/26 08:09:55;;;;;;;7.72;4.95;;;11.80;99.90;;;;;;5021005;28;20033;-77
2022/04/26 08:12:21;;;;;;;7.45;5.15;;;11.80;99.90;;;;;;5024670;28;20040;-76
2022/04/26 08:14:46;;;;;;;6.85;4.32;;;11.80;99.90;;;;;;5027437;28;20034;-76
2022/04/26 08:17:15;;;;;;;8.85;4.50;;;11.80;99.90;;;;;;5010852;28;20037;-77
2022/04/26 08:19:41;;;;;;;6.38;4.47;;;11.90;99.90;;;;;;5022729;28;20021;-78
2022/04/26 08:22:07;;;;;;;7.88;4.45;;;11.90;99.90;;;;;;5026259;28;20082;-78
2022/04/26 08:27:22;;;;;;;6.40;4.53;;;11.90;99.90;;;;;;5026636;28;20446;-78
2022/04/26 08:29:49;;;;;;;6.68;4.72;;;11.90;99.90;;;;;;5031796;28;20045;-79
2022/04/26 08:32:14;;;;;;;6.55;4.82;;;11.90;99.90;;;;;;5019886;28;20440;-77
2022/04/26 08:34:41;;;;;;;9.10;4.47;;;12.00;99.90;;;;;;5027448;28;20037;-77
2022/04/26 08:37:07;;;;;;;9.50;5.10;;;12.00;99.90;;;;;;5016742;28;20029;-77
2022/04/26 08:39:33;;;;;;;7.32;5.22;;;12.00;99.90;;;;;;5031479;28;20082;-76
2022/04/26 08:41:59;;;;;;;7.57;5.28;;;12.00;99.90;;;;;;5029663;28;20113;-78
2022/04/26 08:44:27;;;;;;;9.25;4.95;;;12.10;99.90;;;;;;5028215;28;20026;-79
2022/04/26 08:52:23;;;;;;;5.18;4.15;;;12.10;99.90;;;;;;5027810;28;20440;-77
2022/04/26 08:54:49;;;;;;;7.97;5.03;;;12.10;99.90;;;;;;5028282;28;20068;-78
2022/04/26 08:57:15;;;;;;;7.85;4.80;;;12.00;99.90;;;;;;5008669;28;20095;-79
2022/04/26 08:59:49;;;;;;;7.32;4.55;;;12.00;99.90;;;;;;5030507;28;20425;-77
2022/04/26 09:02:19;;;;;;;6.22;4.43;;;12.00;99.90;;;;;;5026753;28;20025;-77
2022/04/26 09:05:01;;;;;;;5.85;4.65;;;12.00;99.90;;;;;;5024127;28;20026;-78
2022/04/26 09:07:34;;;;;;;7.00;5.07;;;12.10;99.90;;;;;;5019188;28;20108;-78
2022/04/26 09:10:09;;;;;;;7.93;5.00;;;12.10;99.90;;;;;;5017224;28;20064;-78
2022/04/26 09:13:07;;;;;;;8.65;4.75;;;12.10;99.90;;;;;;5064840;23;20394;-86
2022/04/26 09:15:48;;;;;;;6.93;4.78;;;12.20;99.90;;;;;;5004691;28;20125;-86
2022/04/26 09:18:24;;;;;;;5.72;4.63;;;12.30;99.90;;;;;;5000056;28;20057;-85
2022/04/26 09:20:54;;;;;;;6.40;4.72;;;12.40;99.90;;;;;;5021967;28;20075;-85
2022/04/26 09:23:28;;;;;;;6.68;4.32;;;12.50;99.90;;;;;;5012339;28;20080;-87
2022/04/26 09:26:09;;;;;;;5.97;4.20;;;12.60;99.90;;;;;;5027133;28;20021;-85
2022/04/26 09:28:37;;;;;;;7.28;4.53;;;12.70;99.90;;;;;;5030265;28;20017;-87
2022/04/26 09:31:23;;;;;;;5.93;4.65;;;12.90;99.90;;;;;;5027245;28;20021;-87
2022/04/26 09:33:52;;;;;;;5.43;3.95;;;13.10;99.90;;;;;;5027600;28;20025;-87
2022/04/26 09:36:21;;;;;;;6.75;5.03;;;13.20;99.90;;;;;;5011302;28;20572;-85
2022/04/26 09:39:01;;;;;;;6.38;4.57;;;13.40;99.90;;;;;;5029694;28;20026;-85
2022/04/26 09:41:29;;;;;;;7.07;4.43;;;13.40;99.90;;;;;;5027327;28;20036;-84
2022/04/26 09:44:05;;;;;;;5.80;4.35;;;13.40;99.90;;;;;;5007844;28;20025;-91
2022/04/26 09:46:54;;;;;;;6.88;4.20;;;13.30;99.90;;;;;;4994608;28;20099;-86
2022/04/26 09:49:22;;;;;;;7.63;4.45;;;13.40;99.90;;;;;;5028327;28;20032;-84
2022/04/26 09:51:54;;;;;;;5.18;4.40;;;13.30;99.90;;;;;;5032978;28;20040;-90
2022/04/26 09:54:21;;;;;;;11.35;4.78;;;13.20;99.90;;;;;;5019666;28;20075;-85
2022/04/26 09:56:47;;;;;;;11.75;4.70;;;13.20;99.90;;;;;;5027086;28;20477;-89
2022/04/26 09:59:20;;;;;;;6.68;4.53;;;13.20;99.90;;;;;;5027900;28;20032;-88
2022/04/26 10:01:47;;;;;;;8.45;4.53;;;13.10;99.90;;;;;;5030688;28;20432;-87
2022/04/26 10:04:17;;;;;;;7.00;4.72;;;13.10;99.90;;;;;;5026891;28;20117;-85
2022/04/26 10:06:45;;;;;;;7.20;4.55;;;13.10;99.90;;;;;;5028637;28;20024;-83
2022/04/26 10:09:12;;;;;;;10.55;4.53;;;13.20;99.90;;;;;;5022375;28;20436;-84
2022/04/26 10:11:38;;;;;;;6.30;4.63;;;13.00;99.90;;;;;;5010556;28;20120;-85
2022/04/26 10:14:09;;;;;;;6.57;4.32;;;13.20;99.90;;;;;;5015073;28;20033;-83
2022/04/26 10:16:39;;;;;;;8.63;5.03;;;13.30;99.90;;;;;;5002624;28;20034;-84
2022/04/26 10:19:12;;;;;;;7.90;4.15;;;13.40;99.90;;;;;;5019621;28;20075;-86
2022/04/26 10:21:40;;;;;;;5.80;4.07;;;13.60;99.90;;;;;;5005630;28;20029;-86
2022/04/26 10:24:14;;;;;;;6.72;4.38;;;13.70;99.90;;;;;;5027391;28;20063;-85
2022/04/26 10:26:40;;;;;;;;;;;13.70;99.90;;;;;;5029176;28;20038;-88
2022/04/26 10:29:09;;;;;;;5.75;3.85;;;13.60;99.90;;;;;;5016650;28;20415;-88
2022/04/26 10:31:49;;;;;;;5.97;4.10;;;13.80;99.90;;;;;;5010507;28;20040;-84
2022/04/26 10:34:16;;;;;;;6.78;4.47;;;13.70;99.90;;;;;;5009365;28;20460;-87
2022/04/26 10:36:57;;;;;;;6.22;4.40;;;13.50;99.90;;;;;;5026342;28;20032;-86
2022/04/26 10:39:30;;;;;;;8.52;4.40;;;13.40;99.90;;;;;;5009039;28;20489;-85
2022/04/26 10:41:57;;;;;;;5.20;4.32;;;13.50;99.90;;;;;;5021928;28;20025;-84
2022/04/26 10:44:24;;;;;;;6.97;4.93;;;13.50;99.90;;;;;;5013941;28;20017;-90
2022/04/26 10:46:58;;;;;;;6.20;4.38;;;13.60;99.90;;;;;;5032331;28;20049;-91
2022/04/26 10:49:35;;;;;;;6.85;4.55;;;13.60;99.90;;;;;;5026901;28;20130;-93
2022/04/26 10:54:48;;;;;;;5.80;4.03;;;13.60;99.90;;;;;;5034140;28;20029;-92
2022/04/26 10:57:24;;;;;;;5.05;3.47;;;13.60;99.90;;;;;;5016304;28;20032;-91
2022/04/26 11:00:13;;;;;;;8.18;3.95;;;13.60;99.90;;;;;;5011091;28;20018;-91
2022/04/26 11:02:41;;;;;;;11.10;3.85;;;13.60;99.90;;;;;;5017002;28;20025;-93
2022/04/26 11:05:12;;;;;;;7.22;4.15;;;13.70;99.90;;;;;;5030976;28;20029;-92
2022/04/26 11:07:48;;;;;;;5.80;4.45;;;13.90;99.90;;;;;;5003875;28;20048;-94
2022/04/26 11:10:18;;;;;;;7.65;4.03;;;13.90;99.90;;;;;;5031915;28;20046;-94
2022/04/26 11:12:43;;;;;;;5.47;3.60;;;14.10;99.90;;;;;;5004606;28;20033;-91
2022/04/26 11:15:14;;;;;;;5.05;3.10;;;14.20;99.90;;;;;;5023810;28;20021;-94
2022/04/26 11:17:42;;;;;;;13.00;4.80;;;14.10;98.90;;;;;;5028165;28;20759;-94
2022/04/26 11:20:19;;;;;;;7.13;3.50;;;13.70;99.90;;;;;;5009281;28;20033;-88
2022/04/26 11:22:47;;;;;;;8.32;3.60;;;12.80;99.90;;;;;;5015843;28;20473;-86
2022/04/26 11:28:09;;;;;;;8.80;4.13;;;12.00;99.90;;;;;;5037519;28;20080;-90
2022/04/26 11:30:46;;;;;;;5.75;3.50;;;11.90;99.90;;;;;;5006323;28;20502;-90
2022/04/26 11:33:22;;;;;;;8.75;4.05;;;11.80;99.90;;;;;;5028227;28;20100;-87
2022/04/26 11:36:00;;;;;;;7.20;4.60;;;11.80;99.90;;;;;;5008920;28;20572;-87
2022/04/26 11:38:27;;;;;;;7.95;4.78;;;11.80;99.90;;;;;;5012712;28;20393;-88
2022/04/26 11:41:01;;;;;;;10.18;5.43;;;11.90;99.90;;;;;;5018315;28;20202;-90
2022/04/26 11:43:32;;;;;;;9.20;5.40;;;12.10;99.90;;;;;;5006720;28;20021;-88
2022/04/26 11:45:58;;;;;;;8.95;4.40;;;12.30;99.90;;;;;;5030515;28;20463;-87
2022/04/26 11:48:29;;;;;;;5.47;3.33;;;12.50;99.90;;;;;;5024505;28;20489;-89
2022/04/26 11:50:57;;;;;;;5.90;3.53;;;12.70;99.90;;;;;;5029719;28;20037;-91
2022/04/26 11:53:25;;;;;;;5.32;3.13;;;13.00;99.90;;;;;;5009482;28;20036;-88
2022/04/26 11:55:58;;;;;;;4.78;2.70;;;13.20;99.90;;;;;;5011569;28;20065;-88
2022/04/26 11:58:26;;;;;;;5.97;2.70;;;13.50;99.90;;;;;;5010800;28;20057;-89
2022/04/26 12:01:16;;;;;;;4.25;2.75;;;13.60;99.90;;;;;;5026001;28;20052;-93
2022/04/26 12:03:49;;;;;;;4.15;2.95;;;13.80;99.90;;;;;;5034432;28;20541;-93
2022/04/26 12:06:24;;;;;;;7.00;3.08;;;14.00;99.90;;;;;;5021991;28;20040;-93
2022/04/26 12:08:54;;;;;;;7.47;3.13;;;14.10;99.90;;;;;;5021236;28;20036;-94
2022/04/26 12:11:26;;;;;;;3.58;2.55;;;14.20;99.90;;;;;;5035121;28;20025;-93
2022/04/26 12:13:59;;;;;;;3.95;2.60;;;14.30;99.90;;;;;;5034669;28;20032;-92
2022/04/26 12:16:25;;;;;;;3.58;2.22;;;14.40;99.50;;;;;;5031513;28;20171;-90
2022/04/26 12:18:56;;;;;;;2.70;1.63;;;14.40;99.90;;;;;;5018383;28;20029;-90
2022/04/26 12:21:23;;;;;;;4.03;2.22;;;14.50;99.90;;;;;;5028095;28;20029;-90
2022/04/26 12:24:15;;;;;;;1.98;1.35;;;14.60;98.70;;;;;;5014177;28;20029;-88
2022/04/26 12:26:56;;;;;;;2.78;1.63;;;14.70;96.20;;;;;;5027417;28;20038;-89
2022/04/26 12:29:24;;;;;;;2.13;1.20;;;14.40;93.80;;;;;;5008545;28;20389;-89
2022/04/26 12:31:50;;;;;;;1.75;1.25;;;14.40;93.60;;;;;;5025538;28;20049;-89
2022/04/26 12:34:18;;;;;;;1.52;0.90;;;14.30;94.20;;;;;;5023059;28;20068;-88
2022/04/26 12:36:51;;;;;;;2.70;1.42;;;14.20;93.60;;;;;;5027198;28;20180;-88
2022/04/26 12:39:21;;;;;;;2.10;1.37;;;14.10;94.00;;;;;;5031052;28;20056;-89
2022/04/26 12:41:51;;;;;;;2.72;1.58;;;14.10;93.90;;;;;;5027238;28;20320;-89
2022/04/26 12:44:18;;;;;;;4.55;1.45;;;14.00;93.30;;;;;;5030060;28;20032;-86
2022/04/26 12:50:33;;;;;;;4.13;1.90;;;14.00;93.20;;;;;;5022711;28;20037;-86
2022/04/26 12:52:59;;;;;;;2.85;1.60;;;14.00;93.60;;;;;;4944457;28;20472;-87
2022/04/26 12:55:31;;;;;;;2.45;1.63;;;14.00;94.90;;;;;;4946211;28;20042;-88
2022/04/26 12:57:59;;;;;;;3.97;1.83;;;14.00;95.70;;;;;;4994216;28;20128;-89
2022/04/26 13:00:26;;;;;;;2.50;1.60;;;14.00;95.00;;;;;;5024047;28;20473;-91
2022/04/26 13:02:54;;;;;;;3.63;2.08;;;14.00;95.00;;;;;;5009750;28;20402;-85
2022/04/26 13:05:21;;;;;;;3.85;2.13;;;14.00;95.60;;;;;;5023366;28;20025;-86
2022/04/26 13:07:47;;;;;;;4.03;2.42;;;14.00;95.90;;;;;;5022877;28;20548;-85
2022/04/26 13:10:15;;;;;;;5.50;2.35;;;14.00;96.30;;;;;;5025565;28;20041;-85
2022/04/26 13:12:41;;;;;;;4.82;2.10;;;14.00;96.00;;;;;;5012028;28;20036;-85
2022/04/26 13:15:10;;;;;;;3.58;2.28;;;13.80;95.20;;;;;;5026326;28;20049;-92
2022/04/26 13:17:39;;;;;;;2.33;1.67;;;13.70;94.60;;;;;;5015714;28;20022;-88
2022/04/26 13:20:07;;;;;;;2.35;1.15;;;13.80;95.20;;;;;;5031193;28;20110;-87
2022/04/26 13:22:34;;;;;;;2.08;1.30;;;13.90;94.40;;;;;;5014697;28;20037;-87
2022/04/26 13:25:01;;;;;;;2.70;1.50;;;13.90;93.60;;;;;;5035353;28;20081;-88
2022/04/26 13:27:27;;;;;;;1.58;1.30;;;13.90;94.00;;;;;;5029058;28;20716;-88
2022/04/26 13:29:53;;;;;;;2.40;1.63;;;13.90;92.90;;;;;;5023866;28;20052;-85
2022/04/26 13:32:19;;;;;;;2.20;1.70;;;13.90;91.30;;;;;;5017846;28;20033;-84
2022/04/26 13:34:45;;;;;;;3.55;2.13;;;13.90;91.10;;;;;;5000751;28;20393;-83
2022/04/26 13:37:12;;;;;;;4.68;2.40;;;13.80;91.40;;;;;;5016503;28;20021;-93
2022/04/26 13:39:43;;;;;;;3.22;2.17;;;13.70;90.90;;;;;;5013933;28;20157;-84
2022/04/26 13:42:10;;;;;;;5.50;3.08;;;13.70;89.20;;;;;;5011194;28;20392;-85
2022/04/26 13:44:35;;;;;;;5.63;2.75;;;13.80;90.00;;;;;;5013408;28;20029;-84
2022/04/26 13:47:04;;;;;;;6.68;3.00;;;14.00;90.40;;;;;;5023225;28;20028;-85
2022/04/26 13:49:31;;;;;;;5.00;3.50;;;14.20;88.60;;;;;;5012080;28;20030;-85
2022/04/26 13:51:57;;;;;;;5.15;2.92;;;14.30;89.50;;;;;;5007256;28;20033;-85
2022/04/26 13:54:27;;;;;;;4.40;2.30;;;14.50;89.20;;;;;;5002814;28;20370;-86
2022/04/26 13:56:55;;;;;;;5.68;3.25;;;14.60;87.90;;;;;;5009563;28;20051;-86
2022/04/26 13:59:22;;;;;;;5.53;3.17;;;14.60;86.90;;;;;;5028525;28;20502;-86
2022/04/26 14:01:49;;;;;;;3.92;2.67;;;14.50;87.30;;;;;;5016976;28;20033;-88
2022/04/26 14:04:16;;;;;;;3.95;2.80;;;14.50;88.30;;;;;;4975559;28;20042;-87
2022/04/26 14:06:41;;;;;;;4.68;3.10;;;14.40;88.50;;;;;;4987972;28;20504;-88
2022/04/26 14:09:07;;;;;;;4.75;3.22;;;14.40;90.00;;;;;;4999205;28;20046;-91
2022/04/26 14:11:33;;;;;;;4.55;2.75;;;14.30;88.30;;;;;;5008573;28;20029;-88
2022/04/26 14:22:11;;;;;;;6.25;3.25;;;13.60;91.60;;;;;;5003605;28;20055;-85
2022/04/26 14:24:38;;;;;;;3.88;2.45;;;13.20;92.40;;;;;;4999391;28;20681;-86
2022/04/26 14:27:05;;;;;;;7.07;3.08;;;13.20;93.10;;;;;;4993484;28;20025;-91
2022/04/26 14:29:33;;;;;;;3.88;2.35;;;13.10;93.90;;;;;;5010250;28;20144;-91
2022/04/26 14:31:59;;;;;;;4.80;3.08;;;13.00;94.20;;;;;;4991972;28;20029;-90
2022/04/26 14:34:25;;;;;;;4.43;2.50;;;12.80;95.00;;;;;;5006211;28;20037;-89
2022/04/26 14:36:51;;;;;;;4.53;2.70;;;12.70;95.10;;;;;;5019475;28;20612;-90
2022/04/26 14:39:17;;;;;;;4.95;3.28;;;12.40;95.50;;;;;;4990343;28;20121;-87
2022/04/26 14:41:43;;;;;;;4.15;3.35;;;12.30;95.60;;;;;;5007975;28;20045;-88
2022/04/26 14:44:12;;;;;;;6.05;3.60;;;12.30;98.40;;;;;;5005928;28;20397;-96
2022/04/26 14:46:40;;;;;;;7.88;4.35;;;12.10;99.90;;;;;;5009888;28;20056;-96
2022/04/26 14:49:06;;;;;;;5.88;4.30;;;11.70;99.90;;;;;;4999065;28;20474;-96
2022/04/26 14:51:32;;;;;;;8.25;5.63;;;11.50;99.90;;;;;;5006945;28;20524;-96
2022/04/26 14:54:00;;;;;;;7.28;5.05;;;11.10;99.90;;;;;;5011198;28;20083;-96
2022/04/26 14:56:26;;;;;;;6.53;4.78;;;10.80;99.90;;;;;;4991701;28;20029;-89
2022/04/26 14:58:52;;;;;;;8.48;5.03;;;10.70;99.90;;;;;;5008920;28;20030;-86
2022/04/26 15:01:17;;;;;;;7.30;5.20;;;10.80;99.90;;;;;;5008651;28;20065;-94
2022/04/26 15:03:44;;;;;;;6.78;4.00;;;11.10;99.90;;;;;;4998274;28;20040;-95
2022/04/26 15:06:13;;;;;;;6.30;4.75;;;11.20;99.90;;;;;;5021341;28;20037;-96
2022/04/26 15:16:46;;;;;;;7.75;5.15;;;11.80;99.90;;;;;;5026528;28;20037;-78
2022/04/26 15:19:13;;;;;;;7.60;3.72;;;12.00;99.90;;;;;;5011005;28;20140;-78
2022/04/26 15:21:42;;;;;;;8.00;4.60;;;12.10;99.90;;;;;;5022769;28;20028;-78
2022/04/26 15:24:07;;;;;;;10.02;5.35;;;12.20;99.90;;;;;;5033788;28;20493;-79
2022/04/26 15:26:34;;;;;;;6.20;3.83;;;12.30;99.90;;;;;;5028699;28;20069;-79
2022/04/26 15:29:00;;;;;;;5.93;3.00;;;12.30;99.90;;;;;;5034496;28;20025;-77
2022/04/26 15:31:26;;;;;;;7.32;4.18;;;12.40;99.90;;;;;;5028028;28;20128;-77
2022/04/26 15:33:52;;;;;;;5.32;3.17;;;12.40;99.90;;;;;;5024102;28;20541;-78
2022/04/26 15:36:19;;;;;;;5.35;3.67;;;12.40;99.90;;;;;;5019461;28;20025;-79
2022/04/26 15:38:45;;;;;;;5.88;3.47;;;12.50;99.90;;;;;;5026285;28;20029;-78
2022/04/26 15:41:12;;;;;;;11.52;4.47;;;12.60;99.90;;;;;;5027881;28;20022;-77
2022/04/26 15:43:39;;;;;;;6.68;4.25;;;12.70;99.90;;;;;;5017077;28;20021;-78
2022/04/26 15:46:06;;;;;;;4.93;3.58;;;12.70;99.90;;;;;;5020554;28;20148;-78
2022/04/26 15:48:34;;;;;;;5.53;3.75;;;12.70;99.90;;;;;;5029892;28;20035;-78
2022/04/26 15:51:00;;;;;;;5.60;3.42;;;12.70;99.90;;;;;;5028559;28;20079;-78
2022/04/26 15:53:26;;;;;;;4.85;3.40;;;12.80;99.90;;;;;;5035527;28;20018;-78
2022/04/26 15:55:51;;;;;;;4.72;3.55;;;12.70;99.90;;;;;;5028425;28;20060;-78
2022/04/26 15:58:17;;;;;;;5.72;3.78;;;12.70;99.90;;;;;;4990457;28;20052;-77
2022/04/26 16:00:44;;;;;;;8.07;3.60;;;12.60;99.90;;;;;;4998570;28;20030;-78
2022/04/26 16:03:09;;;;;;;6.35;4.25;;;12.60;99.90;;;;;;5005313;28;20033;-74
2022/04/26 16:05:36;;;;;;;7.18;4.00;;;12.60;99.90;;;;;;5021347;28;20032;-76
2022/04/26 16:08:03;;;;;;;6.50;4.15;;;12.60;99.90;;;;;;5004444;28;20551;-79
2022/04/26 16:21:26;;;;;;;5.03;3.75;;;12.90;99.90;;;;;;5030826;28;20287;-77
2022/04/26 16:23:54;;;;;;;6.22;3.75;;;12.90;99.90;;;;;;5032743;28;20018;-76
2022/04/26 16:26:22;;;;;;;5.90;4.10;;;12.90;99.90;;;;;;5041898;28;20052;-78
2022/04/26 16:28:48;;;;;;;4.93;3.47;;;12.90;99.90;;;;;;5033547;28;20026;-81
2022/04/26 16:31:15;;;;;;;5.88;3.78;;;13.00;99.90;;;;;;5026269;28;20034;-79
2022/04/26 16:33:41;;;;;;;6.50;4.05;;;13.00;99.90;;;;;;5026697;28;20037;-81
2022/04/26 16:36:08;;;;;;;5.80;3.70;;;13.20;99.90;;;;;;5026943;28;20060;-76
2022/04/26 16:38:36;;;;;;;6.28;3.70;;;13.20;99.90;;;;;;5037228;28;20037;-78
2022/04/26 16:41:04;;;;;;;5.43;3.40;;;13.20;99.90;;;;;;5031618;28;20056;-77
2022/04/26 16:43:29;;;;;;;5.25;3.28;;;13.40;99.90;;;;;;5020288;28;20037;-78
2022/04/26 16:45:56;;;;;;;6.72;4.05;;;13.30;99.90;;;;;;5022091;28;20021;-78
2022/04/26 16:48:22;;;;;;;5.18;3.50;;;13.30;99.90;;;;;;5034435;28;20025;-79
2022/04/26 16:50:48;;;;;;;6.57;3.70;;;13.30;99.90;;;;;;5022060;28;20025;-79
2022/04/26 16:53:14;;;;;;;4.57;2.67;;;13.30;99.90;;;;;;5027863;28;20075;-78
2022/04/26 16:55:40;;;;;;;4.07;2.70;;;13.30;99.90;;;;;;5029136;28;20033;-77
2022/04/26 16:58:06;;;;;;;5.90;3.08;;;13.20;99.90;;;;;;5007975;28;20389;-78
2022/04/26 17:00:32;;;;;;;4.57;2.92;;;13.20;99.90;;;;;;5034689;28;20051;-78
2022/04/26 17:02:58;;;;;;;4.53;2.53;;;13.20;99.90;;;;;;5027147;28;20021;-78
2022/04/26 17:05:26;;;;;;;3.53;2.92;;;13.00;99.90;;;;;;5011012;28;20531;-79
2022/04/26 17:07:55;;;;;;;3.40;2.67;;;13.00;99.90;;;;;;5032010;28;20507;-79
2022/04/26 17:10:21;;;;;;;5.68;3.05;;;12.90;99.90;;;;;;5018078;28;20026;-79
2022/04/26 17:12:48;;;;;;;5.03;3.10;;;12.80;99.90;;;;;;5018715;28;20056;-80
2022/04/26 17:15:16;;;;;;;6.90;4.22;;;12.70;99.90;;;;;;5030817;28;20039;-76
2022/04/26 17:17:42;;;;;;;4.97;3.10;;;12.70;99.90;;;;;;5022445;28;20032;-78